Time;durP1;ratioP1;P1;durP2;ratioP2;P2;SDS_P1;SDS_P2;PMS_P1;PMS_P2;Temp;Humidity;BMP_temperature;BMP_pressure;BME280_temperature;BME280_humidity;BME280_pressure;Samples;Min_cycle;Max_cycle;Signal;HPM_P1;HPM_P2
2023/01/16 00:00:14;;;;;;;71.80;31.27;;;;;;;1.57;88.45;94744.13;5032371;28;20187;-75
2023/01/16 00:02:40;;;;;;;55.43;26.23;;;;;;;1.56;89.25;94724.34;5032887;28;21051;-74
2023/01/16 00:05:05;;;;;;;42.53;19.13;;;;;;;1.63;90.37;94746.09;5032124;28;20199;-75
2023/01/16 00:07:31;;;;;;;54.75;25.10;;;;;;;1.65;91.33;94745.91;5031212;28;20507;-75
2023/01/16 00:09:56;;;;;;;55.60;22.83;;;;;;;1.70;91.85;94743.69;5031599;28;20179;-74
2023/01/16 00:12:21;;;;;;;45.80;20.07;;;;;;;1.65;90.88;94731.16;5031658;28;20183;-75
2023/01/16 00:14:47;;;;;;;43.85;23.15;;;;;;;1.78;92.01;94744.50;5031077;28;20812;-74
2023/01/16 00:17:12;;;;;;;51.17;22.67;;;;;;;1.67;91.38;94705.88;5032093;28;20208;-74
2023/01/16 00:19:38;;;;;;;44.33;20.67;;;;;;;1.92;90.45;94730.06;5032378;28;20184;-74
2023/01/16 00:22:03;;;;;;;44.63;21.70;;;;;;;1.81;91.53;94713.06;5030971;28;20428;-74
2023/01/16 00:24:28;;;;;;;42.90;19.70;;;;;;;1.93;90.87;94726.50;5030907;28;20184;-75
2023/01/16 00:26:54;;;;;;;42.77;20.20;;;;;;;1.97;90.64;94727.81;5027211;28;20172;-75
2023/01/16 00:29:19;;;;;;;46.50;20.73;;;;;;;1.88;90.41;94723.59;5012489;28;20176;-75
2023/01/16 00:31:45;;;;;;;65.53;22.77;;;;;;;1.85;89.29;94723.91;5012166;28;20176;-75
2023/01/16 00:34:10;;;;;;;62.10;26.40;;;;;;;1.67;90.15;94718.03;5010998;28;20913;-74
2023/01/16 00:36:38;;;;;;;51.87;21.47;;;;;;;1.41;90.71;94695.63;5012019;28;20192;-74
2023/01/16 00:39:04;;;;;;;48.33;19.50;;;;;;;1.61;90.94;94724.69;5012416;28;21035;-74
2023/01/16 00:41:29;;;;;;;51.87;20.20;;;;;;;1.74;90.72;94719.84;5020021;28;20261;-74
2023/01/16 00:43:58;;;;;;;50.37;20.10;;;;;;;1.63;90.69;94678.66;5031418;28;20182;-75
2023/01/16 00:46:24;;;;;;;47.77;19.20;;;;;;;1.63;90.69;94686.44;5031724;28;20271;-75
2023/01/16 00:48:50;;;;;;;48.25;19.98;;;;;;;1.30;90.70;94656.25;5030973;28;20550;-75
2023/01/16 00:51:15;;;;;;;45.77;20.33;;;;;;;0.94;91.29;94583.13;5030509;28;20427;-75
2023/01/16 00:53:40;;;;;;;37.63;16.60;;;;;;;1.69;91.10;94709.13;5031474;28;20274;-75
2023/01/16 00:56:06;;;;;;;39.93;16.80;;;;;;;1.68;91.55;94717.88;5031337;28;20222;-75
2023/01/16 00:58:32;;;;;;;41.22;19.83;;;;;;;1.66;91.65;94717.22;5030600;28;20409;-74
2023/01/16 01:00:57;;;;;;;39.23;18.17;;;;;;;1.70;91.75;94702.16;5031382;28;20223;-75
2023/01/16 01:03:23;;;;;;;46.33;18.33;;;;;;;1.71;91.66;94696.00;5031211;28;20186;-74
2023/01/16 01:05:48;;;;;;;51.50;18.97;;;;;;;1.79;91.08;94696.81;5031290;28;20198;-75
2023/01/16 01:08:14;;;;;;;37.90;16.93;;;;;;;1.48;90.91;94659.50;5031114;28;20415;-75
2023/01/16 01:10:39;;;;;;;40.83;18.67;;;;;;;1.72;91.09;94705.41;5031370;28;20172;-75
2023/01/16 01:13:05;;;;;;;46.17;17.30;;;;;;;1.70;90.29;94702.16;5029817;28;20651;-75
2023/01/16 01:15:31;;;;;;;47.67;18.70;;;;;;;1.69;90.44;94706.53;5017241;28;20196;-74
2023/01/16 01:17:57;;;;;;;51.33;19.87;;;;;;;1.74;90.23;94706.84;5011400;28;20587;-74
2023/01/16 01:20:23;;;;;;;51.17;23.98;;;;;;;1.54;91.26;94681.41;5010473;28;21032;-74
2023/01/16 01:22:48;;;;;;;42.20;19.00;;;;;;;1.63;90.65;94690.81;5011045;28;20188;-74
2023/01/16 01:25:14;;;;;;;37.73;17.60;;;;;;;1.58;91.74;94687.88;5011122;28;20606;-75
2023/01/16 01:27:39;;;;;;;62.35;25.58;;;;;;;1.59;91.92;94682.53;5011108;28;20906;-75
2023/01/16 01:30:05;;;;;;;37.93;18.20;;;;;;;1.54;91.57;94661.47;5010184;28;20960;-74
2023/01/16 01:32:31;;;;;;;64.67;27.73;;;;;;;1.61;91.50;94679.78;5010930;28;20241;-74
2023/01/16 01:34:58;;;;;;;42.77;19.63;;;;;;;1.60;90.20;94665.19;5010973;28;20183;-75
2023/01/16 01:37:24;;;;;;;41.93;17.57;;;;;;;1.63;89.81;94668.28;5009814;28;20255;-75
2023/01/16 01:39:50;;;;;;;36.92;17.55;;;;;;;1.60;90.45;94675.56;5010714;28;20855;-75
2023/01/16 01:45:26;;;;;;;36.23;17.83;;;;;;;1.49;90.49;94659.34;5004589;28;20250;-75
2023/01/16 01:48:13;;;;;;;29.53;14.67;;;;;;;1.56;90.96;94662.09;5008091;28;20196;-75
2023/01/16 01:50:47;;;;;;;38.38;19.00;;;;;;;1.42;91.24;94639.41;5009880;28;20944;-75
2023/01/16 01:53:36;;;;;;;33.50;15.83;;;;;;;1.65;90.39;94660.31;5010826;28;20211;-75
2023/01/16 01:56:08;;;;;;;37.80;17.33;;;;;;;1.69;90.52;94662.44;5007248;28;20224;-75
2023/01/16 01:58:35;;;;;;;31.13;15.73;;;;;;;1.58;90.74;94639.41;5010985;28;20207;-75
2023/01/16 02:01:02;;;;;;;30.33;14.20;;;;;;;1.56;90.54;94635.38;5013801;28;20282;-75
2023/01/16 02:03:34;;;;;;;31.30;14.73;;;;;;;1.62;90.41;94634.72;5030347;28;20254;-75
2023/01/16 02:06:05;;;;;;;34.30;15.10;;;;;;;1.79;90.61;94655.31;5030384;28;20666;-75
2023/01/16 02:08:33;;;;;;;30.53;15.50;;;;;;;1.81;90.47;94657.75;5030397;28;20190;-75
2023/01/16 02:11:25;;;;;;;45.50;16.93;;;;;;;1.71;89.88;94631.16;5029122;28;20214;-75
2023/01/16 02:14:04;;;;;;;45.00;19.73;;;;;;;1.77;89.68;94652.06;5030140;28;20179;-75
2023/01/16 02:19:52;;;;;;;40.17;18.47;;;;;;;1.72;90.17;94641.38;5030710;28;20206;-75
2023/01/16 02:22:29;;;;;;;38.57;18.40;;;;;;;1.63;89.88;94625.97;5009983;28;20192;-75
2023/01/16 02:25:37;;;;;;;43.27;19.43;;;;;;;1.77;89.98;94640.88;5009421;28;20192;-75
2023/01/16 02:28:36;;;;;;;42.53;19.33;;;;;;;1.76;89.98;94639.25;5010696;28;20238;-75
2023/01/16 02:31:10;;;;;;;45.70;20.33;;;;;;;1.80;90.41;94633.59;5010669;28;20539;-75
2023/01/16 02:34:10;;;;;;;41.63;19.57;;;;;;;1.82;90.18;94625.63;5010866;28;20667;-75
2023/01/16 02:36:41;;;;;;;68.43;28.27;;;;;;;1.61;89.83;94591.59;5013333;28;20196;-75
2023/01/16 02:39:21;;;;;;;41.30;20.75;;;;;;;1.67;91.22;94594.34;5014384;28;20421;-75
2023/01/16 02:41:58;;;;;;;50.80;25.47;;;;;;;1.85;91.28;94620.13;5014248;28;20203;-75
2023/01/16 02:44:26;;;;;;;45.27;21.50;;;;;;;1.75;91.21;94617.69;5014167;28;20286;-75
2023/01/16 02:47:36;;;;;;;46.60;23.10;;;;;;;1.76;90.96;94615.91;5014264;28;20176;-75
2023/01/16 02:50:18;;;;;;;58.93;24.80;;;;;;;1.78;90.10;94619.16;4997331;28;20208;-75
2023/01/16 02:52:51;;;;;;;52.03;24.57;;;;;;;1.83;89.50;94617.69;5013853;28;20184;-75
2023/01/16 02:55:29;;;;;;;50.90;24.83;;;;;;;1.66;90.00;94584.94;5014018;28;20204;-75
2023/01/16 02:57:59;;;;;;;53.90;28.65;;;;;;;1.75;90.82;94607.31;5013267;28;20490;-75
2023/01/16 03:00:27;;;;;;;53.57;26.10;;;;;;;1.75;89.92;94599.53;5014338;28;20184;-75
2023/01/16 03:02:53;;;;;;;54.90;26.30;;;;;;;1.80;90.08;94612.84;5033587;28;20279;-75
2023/01/16 03:05:19;;;;;;;55.73;26.50;;;;;;;1.77;89.98;94596.78;5033607;28;20175;-75
2023/01/16 03:07:51;;;;;;;52.33;24.33;;;;;;;1.85;89.78;94612.34;5033496;28;20226;-75
2023/01/16 03:10:41;;;;;;;59.47;26.30;;;;;;;1.88;89.33;94609.41;5033739;28;20184;-75
2023/01/16 03:13:45;;;;;;;44.40;23.27;;;;;;;1.75;88.78;94586.56;5033449;28;20172;-75
2023/01/16 03:16:33;;;;;;;54.87;25.53;;;;;;;1.78;89.69;94588.84;5016346;28;20223;-75
2023/01/16 03:19:05;;;;;;;67.93;26.70;;;;;;;1.66;89.86;94561.59;5011751;28;20418;-75
2023/01/16 03:21:40;;;;;;;54.43;26.30;;;;;;;1.87;90.17;94590.44;5013656;28;20419;-75
2023/01/16 03:24:15;;;;;;;52.10;24.47;;;;;;;1.88;90.01;94581.69;5023774;28;20191;-75
2023/01/16 03:26:47;;;;;;;52.17;23.67;;;;;;;1.94;89.54;94579.41;5018147;28;20251;-75
2023/01/16 03:29:18;;;;;;;65.43;26.20;;;;;;;1.74;89.71;94534.81;5012309;28;20188;-77
2023/01/16 03:31:57;;;;;;;65.13;28.37;;;;;;;1.87;89.88;94564.50;5028067;28;20644;-75
2023/01/16 03:34:47;;;;;;;81.43;34.53;;;;;;;1.81;90.09;94554.78;5031511;28;20401;-75
2023/01/16 03:37:31;;;;;;;68.20;28.90;;;;;;;1.90;90.57;94560.78;5033046;28;20211;-75
2023/01/16 03:40:03;;;;;;;88.10;29.80;;;;;;;1.90;91.76;94560.78;5031709;28;20243;-75
2023/01/16 03:43:04;;;;;;;65.93;27.23;;;;;;;1.90;91.37;94551.16;5032906;28;20241;-75
2023/01/16 03:45:44;;;;;;;75.50;27.00;;;;;;;1.84;91.34;94519.91;4974922;28;20557;-75
2023/01/16 03:48:47;;;;;;;57.67;21.07;;;;;;;1.76;92.05;94509.53;5018416;28;20191;-75
2023/01/16 03:51:22;;;;;;;77.47;27.70;;;;;;;1.81;92.20;94515.06;5007931;28;20961;-75
2023/01/16 03:54:03;;;;;;;72.93;25.67;;;;;;;2.00;92.87;94537.19;5012632;28;20632;-75
2023/01/16 03:56:57;;;;;;;91.47;30.53;;;;;;;1.99;92.57;94536.38;5013098;28;20338;-75
2023/01/16 03:59:23;;;;;;;90.43;31.50;;;;;;;1.96;92.98;94531.56;5010625;28;20191;-75
2023/01/16 04:01:58;;;;;;;103.93;35.37;;;;;;;2.04;93.26;94533.31;5012911;28;20232;-75
2023/01/16 04:04:34;;;;;;;121.93;39.23;;;;;;;2.07;93.39;94536.41;5012743;28;20191;-75
2023/01/16 04:07:06;;;;;;;154.27;52.88;;;;;;;2.11;93.52;94532.47;5012027;28;20561;-76
2023/01/16 04:09:55;;;;;;;111.70;36.80;;;;;;;1.95;93.58;94483.22;5012661;28;20185;-76
2023/01/16 04:12:24;;;;;;;97.50;34.80;;;;;;;2.30;93.46;94535.66;5016332;28;20173;-76
2023/01/16 04:14:58;;;;;;;100.47;35.50;;;;;;;2.28;93.84;94528.84;5027874;28;20321;-76
2023/01/16 04:17:24;;;;;;;82.00;27.83;;;;;;;2.26;93.11;94533.38;5013431;28;20197;-76
2023/01/16 04:20:09;;;;;;;62.93;24.20;;;;;;;2.27;93.78;94531.59;5017591;28;20702;-76
2023/01/16 04:22:35;;;;;;;63.55;26.55;;;;;;;2.27;94.51;94511.63;5008374;28;20430;-77
2023/01/16 04:25:05;;;;;;;64.97;25.30;;;;;;;2.32;94.23;94502.56;5011067;28;20211;-75
2023/01/16 04:27:31;;;;;;;65.63;26.33;;;;;;;2.52;93.97;94527.09;5012085;28;20169;-75
2023/01/16 04:29:56;;;;;;;65.43;25.77;;;;;;;2.52;94.26;94522.72;5010560;28;20778;-75
2023/01/16 04:32:21;;;;;;;63.93;21.50;;;;;;;2.57;94.35;94522.22;5025529;28;20637;-75
2023/01/16 04:34:48;;;;;;;83.05;21.58;;;;;;;2.49;94.19;94493.69;5030385;28;20861;-76
2023/01/16 04:37:16;;;;;;;50.97;19.87;;;;;;;2.27;93.83;94485.69;5011630;28;20326;-76
2023/01/16 04:39:42;;;;;;;54.03;20.30;;;;;;;2.36;94.54;94483.84;5008206;28;20181;-76
2023/01/16 04:42:09;;;;;;;54.20;18.93;;;;;;;2.52;94.56;94504.53;5009322;28;20211;-76
2023/01/16 04:44:34;;;;;;;64.87;19.63;;;;;;;2.33;94.20;94465.22;5004963;28;20212;-76
2023/01/16 04:47:00;;;;;;;46.37;16.97;;;;;;;2.59;94.68;94507.28;5002270;28;20266;-76
2023/01/16 04:49:25;;;;;;;68.67;18.27;;;;;;;2.52;94.01;94494.16;5010515;28;20184;-76
2023/01/16 04:51:51;;;;;;;49.90;17.40;;;;;;;2.33;93.86;94465.22;5011588;28;20197;-76
2023/01/16 04:54:18;;;;;;;54.00;19.17;;;;;;;2.55;94.19;94514.59;5010692;28;20184;-76
2023/01/16 04:56:44;;;;;;;51.60;16.90;;;;;;;2.43;94.09;94487.38;5009766;28;20698;-76
2023/01/16 04:59:10;;;;;;;58.07;19.33;;;;;;;2.36;94.18;94478.66;5011967;28;20180;-76
2023/01/16 05:01:37;;;;;;;60.10;20.37;;;;;;;2.33;94.45;94457.44;5011332;28;20216;-76
2023/01/16 05:04:04;;;;;;;57.23;19.70;;;;;;;2.56;94.49;94505.03;5022425;28;20440;-76
2023/01/16 05:06:30;;;;;;;57.00;19.63;;;;;;;2.55;94.49;94514.59;5015759;28;20457;-76
2023/01/16 05:08:55;;;;;;;61.53;18.80;;;;;;;2.63;94.28;94511.16;5021184;28;20576;-76
2023/01/16 05:11:21;;;;;;;84.63;23.27;;;;;;;2.54;94.25;94504.38;5010504;28;20422;-76
2023/01/16 05:13:46;;;;;;;56.50;19.73;;;;;;;2.45;94.63;94497.59;5011367;28;20176;-76
2023/01/16 05:16:11;;;;;;;54.63;18.33;;;;;;;2.50;94.15;94487.53;5011126;28;20208;-76
2023/01/16 05:18:37;;;;;;;52.00;19.70;;;;;;;2.56;93.84;94489.44;5011304;28;20178;-76
2023/01/16 05:21:03;;;;;;;59.57;19.53;;;;;;;2.59;93.93;94494.31;5012556;28;20188;-76
2023/01/16 05:23:29;;;;;;;48.67;19.43;;;;;;;2.52;93.60;94486.38;5015925;28;20250;-77
2023/01/16 05:25:54;;;;;;;52.73;21.57;;;;;;;2.47;93.78;94480.88;5018659;28;20176;-76
2023/01/16 05:28:20;;;;;;;42.60;16.93;;;;;;;2.33;93.59;94466.03;5011446;28;20184;-77
2023/01/16 05:30:49;;;;;;;48.50;20.73;;;;;;;2.44;93.93;94475.22;5011135;28;20571;-77
2023/01/16 05:33:14;;;;;;;45.77;18.50;;;;;;;2.52;93.32;94475.97;5010095;28;20187;-76
2023/01/16 05:35:39;;;;;;;48.97;17.70;;;;;;;2.47;93.26;94467.09;5011401;28;20207;-77
2023/01/16 05:38:05;;;;;;;62.83;20.93;;;;;;;2.26;92.68;94441.69;5011164;28;20195;-77
2023/01/16 05:40:30;;;;;;;50.63;20.07;;;;;;;2.33;92.51;94455.66;5010570;28;20181;-77
2023/01/16 05:42:56;;;;;;;51.83;19.23;;;;;;;2.39;93.32;94467.94;5016675;28;20257;-77
2023/01/16 05:45:21;;;;;;;47.87;20.00;;;;;;;2.01;93.04;94404.69;5029812;28;20352;-77
2023/01/16 05:47:48;;;;;;;49.27;21.10;;;;;;;2.27;92.90;94448.50;5030991;28;20746;-77
2023/01/16 05:50:33;;;;;;;52.57;22.00;;;;;;;2.43;92.67;94483.97;5029813;28;20189;-77
2023/01/16 05:52:59;;;;;;;53.90;21.73;;;;;;;2.12;92.31;94419.06;5018104;28;20630;-77
2023/01/16 05:55:25;;;;;;;71.50;26.30;;;;;;;2.31;92.43;94462.78;5011177;28;20172;-77
2023/01/16 05:57:52;;;;;;;52.60;23.70;;;;;;;2.34;92.59;94465.03;5030130;28;20215;-77
2023/01/16 06:00:18;;;;;;;58.33;24.33;;;;;;;2.28;93.22;94465.72;5030730;28;20204;-77
2023/01/16 06:02:44;;;;;;;58.50;23.60;;;;;;;2.16;92.50;94439.31;5030669;28;20183;-77
2023/01/16 06:05:10;;;;;;;60.37;23.53;;;;;;;2.07;92.23;94421.38;5029739;28;20258;-77
2023/01/16 06:07:35;;;;;;;60.70;24.53;;;;;;;2.07;92.30;94422.19;5031181;28;20314;-77
2023/01/16 06:10:01;;;;;;;57.77;23.67;;;;;;;2.09;92.84;94427.19;5033845;28;20207;-77
2023/01/16 06:12:26;;;;;;;45.83;18.73;;;;;;;2.08;92.46;94428.16;5034782;28;20585;-77
2023/01/16 06:14:52;;;;;;;51.33;19.43;;;;;;;2.01;92.38;94422.03;5017428;28;20187;-77
2023/01/16 06:17:18;;;;;;;46.50;21.03;;;;;;;1.90;93.02;94408.44;5013735;28;20207;-77
2023/01/16 06:19:45;;;;;;;45.63;19.63;;;;;;;2.22;93.00;94441.25;5015011;28;20172;-77
2023/01/16 06:22:12;;;;;;;40.67;18.10;;;;;;;2.13;92.66;94425.88;5014990;28;20208;-77
2023/01/16 06:24:37;;;;;;;42.90;18.73;;;;;;;2.27;93.27;94451.13;5013682;28;20179;-77
2023/01/16 06:27:04;;;;;;;47.70;20.53;;;;;;;2.12;92.56;94425.06;5014720;28;20176;-77
2023/01/16 06:29:29;;;;;;;40.50;18.10;;;;;;;2.12;92.91;94419.06;5014614;28;20230;-77
2023/01/16 06:31:55;;;;;;;38.90;18.83;;;;;;;2.36;92.94;94450.09;5014354;28;20231;-76
2023/01/16 06:34:21;;;;;;;47.90;22.67;;;;;;;2.22;92.75;94430.06;4994219;28;20192;-77
2023/01/16 06:36:48;;;;;;;48.87;22.50;;;;;;;2.17;92.70;94411.56;5007630;28;20207;-77
2023/01/16 06:39:14;;;;;;;55.23;24.20;;;;;;;2.43;92.38;94439.81;5008177;28;20180;-77
2023/01/16 06:41:40;;;;;;;63.30;29.10;;;;;;;2.39;92.00;94430.78;5012652;28;20279;-77
2023/01/16 06:44:06;;;;;;;83.87;35.00;;;;;;;2.40;91.50;94412.44;5011901;28;20696;-77
2023/01/16 06:46:31;;;;;;;60.90;29.40;;;;;;;2.71;91.82;94446.16;5008789;28;20238;-77
2023/01/16 06:48:57;;;;;;;61.90;27.00;;;;;;;2.53;91.82;94410.06;5008681;28;20196;-77
2023/01/16 06:51:22;;;;;;;57.47;22.57;;;;;;;2.85;91.97;94442.81;5005317;28;20207;-77
2023/01/16 06:53:48;;;;;;;61.47;23.47;;;;;;;2.88;91.76;94445.06;5008943;28;20188;-77
2023/01/16 06:56:13;;;;;;;50.70;21.63;;;;;;;2.77;91.44;94442.06;5006401;28;20196;-77
2023/01/16 06:58:38;;;;;;;49.03;20.97;;;;;;;2.88;92.04;94457.22;5010436;28;20184;-77
2023/01/16 07:01:04;;;;;;;34.93;17.03;;;;;;;2.63;91.82;94410.66;5006069;28;20217;-77
2023/01/16 07:03:30;;;;;;;42.33;16.77;;;;;;;2.86;92.50;94434.00;5011200;28;20716;-77
2023/01/16 07:05:56;;;;;;;39.17;17.23;;;;;;;3.15;91.79;94451.50;5008795;28;20168;-77
2023/01/16 07:08:21;;;;;;;42.00;16.23;;;;;;;2.86;91.78;94409.81;5010826;28;20180;-77
2023/01/16 07:10:49;;;;;;;44.67;17.40;;;;;;;3.20;91.87;94454.38;5008794;28;20675;-77
2023/01/16 07:13:16;;;;;;;39.67;16.30;;;;;;;3.21;91.94;94443.00;5008045;28;20206;-77
2023/01/16 07:24:07;;;;;;;43.40;18.50;;;;;;;3.13;93.10;94455.25;5006676;28;20222;-77
2023/01/16 07:26:36;;;;;;;35.13;16.80;;;;;;;3.13;92.76;94448.25;5010255;28;20166;-77
2023/01/16 07:29:02;;;;;;;38.70;16.77;;;;;;;3.10;92.70;94437.41;5008002;28;20652;-77
2023/01/16 07:31:29;;;;;;;36.13;16.67;;;;;;;3.10;92.26;94414.84;5006719;28;20264;-77
2023/01/16 07:33:54;;;;;;;32.93;16.40;;;;;;;3.17;92.44;94407.94;5009302;28;20177;-77
2023/01/16 07:36:20;;;;;;;46.20;16.00;;;;;;;3.11;91.89;94372.25;5005266;28;20204;-77
2023/01/16 07:38:45;;;;;;;39.03;16.63;;;;;;;3.41;91.64;94402.50;5004602;28;20200;-77
2023/01/16 07:41:12;;;;;;;41.63;18.00;;;;;;;3.71;91.01;94431.94;5007984;28;20535;-77
2023/01/16 07:43:38;;;;;;;33.60;15.70;;;;;;;3.79;90.13;94434.47;5006996;28;20969;-75
2023/01/16 07:46:04;;;;;;;34.13;16.67;;;;;;;3.54;89.82;94393.28;5006441;28;20287;-75
2023/01/16 07:48:29;;;;;;;38.43;17.20;;;;;;;3.82;90.00;94432.47;5006998;28;20260;-75
2023/01/16 07:50:57;;;;;;;33.40;16.60;;;;;;;3.83;89.77;94432.28;5005764;28;20172;-75
2023/01/16 07:53:25;;;;;;;33.00;15.70;;;;;;;3.77;90.17;94402.59;5006625;28;20181;-75
2023/01/16 07:55:53;;;;;;;41.20;17.90;;;;;;;3.72;89.81;94409.31;5004742;28;20708;-75
2023/01/16 07:58:20;;;;;;;40.53;16.83;;;;;;;3.55;90.19;94395.66;5007485;28;20169;-75
2023/01/16 08:00:46;;;;;;;41.87;18.27;;;;;;;3.54;90.28;94377.66;5005195;28;20227;-75
2023/01/16 08:03:13;;;;;;;43.13;19.33;;;;;;;3.63;89.85;94392.97;5008914;28;20185;-75
2023/01/16 08:05:39;;;;;;;37.33;17.40;;;;;;;3.66;90.17;94397.84;5001325;28;20207;-75
2023/01/16 08:08:04;;;;;;;44.63;20.20;;;;;;;3.66;89.87;94404.84;5006920;28;20176;-75
2023/01/16 08:10:30;;;;;;;45.93;18.07;;;;;;;3.68;89.96;94405.47;5001624;28;20168;-75
2023/01/16 08:12:55;;;;;;;37.87;18.97;;;;;;;3.80;90.58;94411.84;5009967;28;20176;-75
2023/01/16 08:15:21;;;;;;;45.23;18.10;;;;;;;3.77;90.78;94389.59;5008168;28;20183;-75
2023/01/16 08:17:46;;;;;;;38.23;17.57;;;;;;;3.98;90.85;94414.84;5009374;28;20211;-75
2023/01/16 08:20:12;;;;;;;41.43;18.67;;;;;;;4.09;90.95;94422.22;4994708;28;20264;-74
2023/01/16 08:22:49;;;;;;;44.03;19.10;;;;;;;4.08;90.47;94393.75;5004626;28;20204;-75
2023/01/16 08:25:16;;;;;;;55.80;24.67;;;;;;;4.31;89.58;94419.69;5006021;28;20176;-75
2023/01/16 08:27:42;;;;;;;53.57;26.10;;;;;;;4.30;88.95;94402.44;5004043;28;20593;-75
2023/01/16 08:30:09;;;;;;;44.00;22.90;;;;;;;4.42;88.26;94393.13;5007468;28;20267;-75
2023/01/16 08:32:34;;;;;;;50.27;22.67;;;;;;;4.58;87.91;94405.13;5004456;28;20176;-76
2023/01/16 08:35:03;;;;;;;54.17;22.47;;;;;;;4.65;87.54;94392.97;5001179;28;20192;-76
2023/01/16 08:37:29;;;;;;;54.77;23.97;;;;;;;4.82;87.06;94395.16;4991824;28;20289;-76
2023/01/16 08:39:55;;;;;;;51.90;24.07;;;;;;;4.91;86.76;94386.22;5004563;28;20271;-75
2023/01/16 08:53:20;;;;;;;58.07;23.13;;;;;;;5.37;84.77;94382.31;5012412;28;20322;-77
2023/01/16 08:55:46;;;;;;;48.97;21.63;;;;;;;5.21;84.10;94365.97;4999564;28;20698;-78
2023/01/16 08:58:11;;;;;;;48.50;22.53;;;;;;;5.20;85.04;94358.31;5009642;28;20183;-77
2023/01/16 09:00:37;;;;;;;49.77;21.67;;;;;;;5.42;84.43;94386.00;5032538;28;20989;-76
2023/01/16 09:03:03;;;;;;;49.33;22.83;;;;;;;5.49;84.67;94381.63;5031789;28;20188;-77
2023/01/16 09:05:29;;;;;;;52.60;22.60;;;;;;;5.56;84.47;94374.63;5031801;28;20176;-77
2023/01/16 09:07:54;;;;;;;48.23;22.40;;;;;;;5.56;83.60;94366.78;5031613;28;20672;-77
2023/01/16 09:10:20;;;;;;;49.50;22.50;;;;;;;5.57;83.20;94363.19;5034629;28;20188;-76
2023/01/16 09:15:31;;;;;;;51.37;23.33;;;;;;;5.72;83.92;94365.66;5005253;28;20227;-77
2023/01/16 09:17:56;;;;;;;50.87;22.50;;;;;;;5.68;82.82;94346.19;5011574;28;20184;-76
2023/01/16 09:20:22;;;;;;;57.63;24.83;;;;;;;5.88;82.61;94352.31;5003362;28;20255;-76
2023/01/16 09:22:47;;;;;;;49.67;22.20;;;;;;;5.98;82.56;94344.13;5011724;28;20204;-76
2023/01/16 09:25:12;;;;;;;50.50;22.07;;;;;;;6.06;82.40;94343.94;5011937;28;20698;-77
2023/01/16 09:27:38;;;;;;;46.10;21.70;;;;;;;6.09;81.77;94337.53;5016230;28;20187;-77
2023/01/16 09:30:05;;;;;;;45.87;21.73;;;;;;;6.03;81.00;94323.47;5023505;28;20187;-76
2023/01/16 09:32:30;;;;;;;55.03;24.20;;;;;;;6.15;81.54;94336.75;5030899;28;20237;-76
2023/01/16 09:34:56;;;;;;;56.10;24.50;;;;;;;6.26;81.87;94328.34;5031204;28;20262;-76
2023/01/16 09:37:21;;;;;;;50.10;24.33;;;;;;;6.21;81.58;94317.69;5031122;28;20912;-77
2023/01/16 09:39:47;;;;;;;55.43;24.57;;;;;;;6.19;81.71;94311.84;5017417;28;20234;-76
2023/01/16 09:45:22;;;;;;;57.13;24.50;;;;;;;6.52;81.06;94323.16;5007921;28;20242;-78
2023/01/16 09:47:52;;;;;;;64.80;30.00;;;;;;;6.50;80.15;94301.66;5007261;28;20669;-78
2023/01/16 09:50:38;;;;;;;41.57;19.37;;;;;;;6.60;78.55;94309.09;5022647;28;20176;-78
2023/01/16 09:58:56;;;;;;;31.93;16.30;;;;;;;6.62;78.42;94280.94;5030826;28;20190;-78
2023/01/16 10:01:37;;;;;;;31.43;17.37;;;;;;;6.83;76.97;94304.31;5030867;28;20235;-78
2023/01/16 10:04:28;;;;;;;38.90;18.57;;;;;;;6.64;76.70;94302.47;5030784;28;20233;-79
2023/01/16 10:06:56;;;;;;;39.97;18.10;;;;;;;6.50;77.36;94293.81;5017499;28;20192;-80
2023/01/16 10:09:34;;;;;;;38.47;17.13;;;;;;;6.40;77.86;94286.34;5016898;28;20238;-77
2023/01/16 10:12:10;;;;;;;40.03;17.40;;;;;;;6.03;78.10;94251.13;5010925;28;20224;-76
2023/01/16 10:15:04;;;;;;;36.80;15.90;;;;;;;6.07;78.96;94267.19;5010716;28;20183;-77
2023/01/16 10:17:35;;;;;;;35.57;16.97;;;;;;;6.21;79.61;94258.41;5010563;28;20227;-76
2023/01/16 10:20:31;;;;;;;38.00;17.30;;;;;;;6.39;78.90;94255.19;5010687;28;20212;-76
2023/01/16 10:23:16;;;;;;;32.80;16.93;;;;;;;6.56;78.16;94245.97;5010116;28;20219;-77
2023/01/16 10:25:53;;;;;;;35.57;16.47;;;;;;;6.68;78.08;94230.44;5010758;28;20184;-78
2023/01/16 10:29:03;;;;;;;39.67;16.67;;;;;;;6.88;77.21;94246.94;5010955;28;20179;-78
2023/01/16 10:31:41;;;;;;;36.63;17.10;;;;;;;6.99;76.61;94241.09;4989070;28;20189;-77
2023/01/16 10:34:25;;;;;;;32.73;16.50;;;;;;;7.06;76.43;94230.63;4991087;28;20272;-77
2023/01/16 10:36:56;;;;;;;37.80;16.63;;;;;;;7.05;76.07;94206.25;4998672;28;20221;-77
2023/01/16 10:39:30;;;;;;;31.43;15.37;;;;;;;7.17;75.54;94235.22;5019346;28;20191;-76
2023/01/16 10:50:36;;;;;;;25.27;13.23;;;;;;;7.35;74.81;94195.31;5023878;28;20679;-78
2023/01/16 10:53:02;;;;;;;29.93;14.93;;;;;;;7.41;74.33;94184.00;5019410;28;20172;-78
2023/01/16 10:55:28;;;;;;;25.30;12.87;;;;;;;7.30;74.64;94167.13;5018492;28;20200;-78
2023/01/16 10:58:01;;;;;;;27.13;13.00;;;;;;;7.29;76.21;94151.63;5027372;28;20172;-78
2023/01/16 11:00:35;;;;;;;25.90;13.77;;;;;;;7.40;75.64;94166.69;5014580;28;20182;-77
2023/01/16 11:03:11;;;;;;;30.80;13.77;;;;;;;7.32;76.10;94149.41;5024215;28;20178;-77
2023/01/16 11:05:36;;;;;;;30.93;13.57;;;;;;;7.25;76.72;94145.22;5018472;28;20168;-77
2023/01/16 11:08:11;;;;;;;26.10;13.43;;;;;;;7.45;76.61;94144.09;5029634;28;20176;-77
2023/01/16 11:10:38;;;;;;;31.37;15.50;;;;;;;7.57;74.56;94136.38;5019804;28;20678;-77
2023/01/16 11:18:55;;;;;;;25.73;12.30;;;;;;;7.68;73.76;94148.03;5006009;28;20658;-77
2023/01/16 11:21:30;;;;;;;26.20;12.97;;;;;;;7.31;74.24;94144.38;5007058;28;20172;-77
2023/01/16 11:23:58;;;;;;;22.43;12.37;;;;;;;7.33;74.88;94152.81;5013651;28;20183;-77
2023/01/16 11:26:26;;;;;;;29.53;12.60;;;;;;;7.25;74.62;94139.97;5017330;28;20211;-77
2023/01/16 11:28:54;;;;;;;24.33;11.47;;;;;;;7.15;74.84;94146.44;5011358;28;20168;-77
2023/01/16 11:31:31;;;;;;;24.77;12.17;;;;;;;6.98;75.37;94111.28;5018542;28;20179;-77
2023/01/16 11:34:04;;;;;;;20.60;11.90;;;;;;;7.12;75.75;94130.34;5009873;28;20176;-77
2023/01/16 11:36:33;;;;;;;28.67;12.27;;;;;;;7.19;76.24;94125.88;5011059;28;20672;-77
2023/01/16 11:38:59;;;;;;;26.90;12.90;;;;;;;7.24;75.96;94125.28;5016155;28;20183;-75
2023/01/16 11:41:36;;;;;;;29.80;13.03;;;;;;;7.31;76.05;94118.19;5018970;28;20168;-74
2023/01/16 11:47:02;;;;;;;26.03;12.10;;;;;;;7.11;75.58;94087.69;5021345;28;20278;-75
2023/01/16 11:49:35;;;;;;;27.87;13.87;;;;;;;7.16;76.60;94106.19;5008476;28;20629;-74
2023/01/16 11:52:04;;;;;;;23.07;11.77;;;;;;;7.23;76.11;94085.22;5010032;28;20180;-75
2023/01/16 11:54:34;;;;;;;22.67;11.40;;;;;;;7.24;75.41;94086.81;5012122;28;20179;-75
2023/01/16 11:57:24;;;;;;;29.77;12.17;;;;;;;7.02;75.37;94075.84;5003716;28;20196;-75
2023/01/16 12:00:16;;;;;;;27.90;13.47;;;;;;;7.09;75.97;94074.00;5002177;28;20184;-75
2023/01/16 12:03:02;;;;;;;21.60;11.23;;;;;;;7.06;75.86;94048.25;5000537;28;20204;-75
2023/01/16 12:05:54;;;;;;;21.67;11.03;;;;;;;7.26;74.88;94073.53;5001526;28;20256;-76
2023/01/16 12:08:56;;;;;;;23.07;11.13;;;;;;;7.30;75.38;94065.03;5012640;28;20200;-76
2023/01/16 12:11:30;;;;;;;23.27;12.13;;;;;;;7.05;75.79;94058.94;5006703;28;20175;-76
2023/01/16 12:14:17;;;;;;;24.07;12.57;;;;;;;6.96;76.69;94052.31;5011681;28;20182;-76
2023/01/16 12:16:54;;;;;;;22.90;11.57;;;;;;;6.99;77.39;94057.97;5011577;28;20235;-76
2023/01/16 12:19:43;;;;;;;22.20;11.97;;;;;;;7.06;76.01;94058.72;5011275;28;20255;-76
2023/01/16 12:22:40;;;;;;;21.37;11.77;;;;;;;6.93;76.31;94056.16;5008416;28;20189;-76
2023/01/16 12:25:27;;;;;;;30.67;11.97;;;;;;;7.01;76.18;94034.19;5009366;28;20223;-76
2023/01/16 12:28:06;;;;;;;21.30;10.60;;;;;;;7.06;75.50;94029.16;5011497;28;20194;-76
2023/01/16 12:30:34;;;;;;;23.93;10.67;;;;;;;7.04;75.69;94037.19;5011735;28;20188;-76
2023/01/16 12:33:35;;;;;;;21.50;11.00;;;;;;;6.73;75.94;94011.00;5011272;28;20184;-76
2023/01/16 12:36:23;;;;;;;18.97;10.70;;;;;;;6.72;75.95;94031.09;5011293;28;20269;-75